createdAt,value
2023-04-01T00:04:47.031Z,984.13
2023-04-01T00:14:52.471Z,984.03
2023-04-01T00:24:58.151Z,983.96
2023-04-01T00:35:03.442Z,983.96
2023-04-01T00:45:09.189Z,983.90
2023-04-01T00:55:14.598Z,983.94
2023-04-01T01:05:20.177Z,983.94
2023-04-01T01:15:25.452Z,983.98
2023-04-01T01:25:31.165Z,983.90
2023-04-01T01:35:36.671Z,983.86
2023-04-01T01:45:42.333Z,983.93
2023-04-01T01:55:47.898Z,983.97
2023-04-01T02:05:53.771Z,983.92
2023-04-01T02:16:00.345Z,983.89
2023-04-01T02:26:06.390Z,983.91
2023-04-01T02:36:12.317Z,983.92
2023-04-01T02:46:18.344Z,983.90
2023-04-01T02:56:23.976Z,983.83
2023-04-01T03:06:29.240Z,983.97
2023-04-01T03:16:34.635Z,983.89
2023-04-01T03:26:40.314Z,983.89
2023-04-01T03:36:45.741Z,983.85
2023-04-01T03:46:51.407Z,983.92
2023-04-01T03:56:56.853Z,983.90
2023-04-01T04:07:02.828Z,983.90
2023-04-01T04:17:08.358Z,983.93
2023-04-01T04:27:14.103Z,984.03
2023-04-01T04:37:19.895Z,984.17
2023-04-01T04:47:25.280Z,984.30
2023-04-01T04:57:31.102Z,984.40
2023-04-01T05:07:36.676Z,984.40
2023-04-01T05:17:42.818Z,984.51
2023-04-01T05:27:48.629Z,984.54
2023-04-01T05:37:54.193Z,984.53
2023-04-01T05:48:00.083Z,984.57
2023-04-01T05:58:06.309Z,984.56
2023-04-01T06:08:12.634Z,984.55
2023-04-01T06:18:19.103Z,984.72
2023-04-01T06:28:26.280Z,984.78
2023-04-01T06:38:33.201Z,984.76
2023-04-01T06:48:40.095Z,984.78
2023-04-01T06:58:46.734Z,984.69
2023-04-01T07:08:53.691Z,984.67
2023-04-01T07:19:00.510Z,984.78
2023-04-01T07:29:07.038Z,984.76
2023-04-01T07:39:13.996Z,984.90
2023-04-01T07:49:20.773Z,984.97
2023-04-01T07:59:27.996Z,985.03
2023-04-01T08:09:34.755Z,985.11
2023-04-01T08:19:41.525Z,985.18
2023-04-01T08:29:48.153Z,985.17
2023-04-01T08:39:55.157Z,985.16
2023-04-01T08:50:01.730Z,985.14
2023-04-01T09:00:08.443Z,985.18
2023-04-01T09:10:15.000Z,985.30
2023-04-01T09:20:21.949Z,985.37
2023-04-01T09:30:28.791Z,985.37
2023-04-01T09:40:35.629Z,985.52
2023-04-01T09:50:42.135Z,985.52
2023-04-01T10:00:48.764Z,985.54
2023-04-01T10:10:55.365Z,985.56
2023-04-01T10:21:02.360Z,985.54
2023-04-01T10:31:08.857Z,985.53
2023-04-01T10:41:15.360Z,985.54
2023-04-01T10:51:22.390Z,985.44
2023-04-01T11:01:29.185Z,985.43
2023-04-01T11:11:35.960Z,985.45
2023-04-01T11:21:42.583Z,985.46
2023-04-01T11:31:49.653Z,985.44
2023-04-01T11:41:56.590Z,985.54
2023-04-01T11:52:03.358Z,985.54
2023-04-01T12:02:09.893Z,985.68
2023-04-01T12:12:16.746Z,985.71
2023-04-01T12:22:23.095Z,985.68
2023-04-01T12:32:29.593Z,985.73
2023-04-01T12:42:36.473Z,985.68
2023-04-01T12:52:42.933Z,985.67
2023-04-01T13:02:49.045Z,985.73
2023-04-01T13:12:55.760Z,985.88
2023-04-01T13:23:02.604Z,985.90
2023-04-01T13:33:09.089Z,986.04
2023-04-01T13:43:15.935Z,985.92
2023-04-01T13:53:22.036Z,985.94
2023-04-01T14:03:28.774Z,986.03
2023-04-01T14:13:36.466Z,986.06
2023-04-01T14:23:43.659Z,986.13
2023-04-01T14:33:50.658Z,986.15
2023-04-01T14:43:57.326Z,986.24
2023-04-01T14:54:04.143Z,986.24
2023-04-01T15:04:10.574Z,986.32
2023-04-01T15:14:17.417Z,986.41
2023-04-01T15:24:24.064Z,986.53
2023-04-01T15:34:30.895Z,986.58
2023-04-01T15:44:37.529Z,986.71
2023-04-01T15:54:44.332Z,986.76
2023-04-01T16:04:51.024Z,986.85
2023-04-01T16:14:57.645Z,986.94
2023-04-01T16:25:04.553Z,987.02
2023-04-01T16:35:11.276Z,987.08
2023-04-01T16:45:17.976Z,987.21
2023-04-01T16:55:24.782Z,987.32
2023-04-01T17:05:31.467Z,987.47
2023-04-01T17:15:38.432Z,987.61
2023-04-01T17:25:44.404Z,987.75
2023-04-01T17:35:50.701Z,987.83
2023-04-01T17:45:56.936Z,988.05
2023-04-01T17:56:03.869Z,988.20
2023-04-01T18:06:10.815Z,988.25
2023-04-01T18:16:17.946Z,988.39
2023-04-01T18:26:23.788Z,988.53
2023-04-01T18:36:30.679Z,988.69
2023-04-01T18:46:37.543Z,988.86
2023-04-01T18:56:43.533Z,989.00
2023-04-01T19:06:50.041Z,989.15
2023-04-01T19:16:56.293Z,989.23
2023-04-01T19:27:02.536Z,989.33
2023-04-01T19:37:08.720Z,989.44
2023-04-01T19:48:33.250Z,989.62
2023-04-01T19:58:37.795Z,989.70
2023-04-01T20:08:43.144Z,989.86
2023-04-01T20:18:49.074Z,989.96
2023-04-01T20:28:57.651Z,990.11
2023-04-01T20:39:03.452Z,990.18
2023-04-01T20:49:12.341Z,990.23
2023-04-01T20:59:18.544Z,990.32
2023-04-01T21:09:24.743Z,990.42
2023-04-01T21:19:30.281Z,990.60
2023-04-01T21:29:36.369Z,990.72
2023-04-01T21:39:43.440Z,990.82
2023-04-01T21:49:49.539Z,990.97
2023-04-01T21:59:55.472Z,991.06
2023-04-01T22:10:01.696Z,991.14
2023-04-01T22:20:07.456Z,991.29
2023-04-01T22:30:13.041Z,991.39
2023-04-01T22:40:19.601Z,991.53
2023-04-01T22:50:25.124Z,991.63
2023-04-01T23:00:30.630Z,991.74
2023-04-01T23:10:36.165Z,991.90
2023-04-01T23:20:42.162Z,991.99
2023-04-01T23:30:48.375Z,992.18
2023-04-01T23:40:54.042Z,992.39
2023-04-01T23:50:59.264Z,992.59
